Windermere, FL (34786)

3:46 AM EDT on August 04, 2015 (GMT -0400)
Windermere Wylde | | Change Station
CLOSE
Current Station
Personal Weather Station
Location: Orlando, FL
Elevation: 154 ft
Nearby Weather Stations

Elev 154 ft 28.50 °N, 81.50 °W | Updated 10 seconds ago

Partly Cloudy
Partly Cloudy
75.2 °F
Feels Like 77 °F
N
1.1
Wind Variable Wind from SE
Gusts 2.5 mph

Today
High -- | Low -- °F
--% Chance of Precip.
Yesterday
High -- | Low -- °F
Precip. -- in
6:49 AM 8:14 PM
Waning Gibbous, 80% visible
Pressure 30.00 in
Visibility 10.0 miles
Clouds Clear
Heat Index 77 °F
Dew Point 64 °F
Humidity 68%
Rainfall 0.00 in
Snow Depth Not available.
UV 0 out of 12
Pollen 3.70 out of 12
Air Quality Not available.
Flu Activity Not available.
METAR KORL 040653Z AUTO 21008KT 10SM CLR 25/23 A2999 RMK AO2 SLP159 T02500233

More Conditions Fewer Conditions

Pressure 30.00 in
Visibility 10.0 miles
Clouds Clear
Heat Index 77 °F
Dew Point 64 °F
Humidity 68%
Rainfall 0.00 in
Snow Depth Not available.
UV 0 out of 12
Pollen 3.70 out of 12
Air Quality Not available.
Flu Activity Not available.
METAR KORL 040653Z AUTO 21008KT 10SM CLR 25/23 A2999 RMK AO2 SLP159 T02500233

More Conditions Fewer Conditions

10-Day Weather Forecast

×

Almanac

Astronomy

Aug. 04, 2015 Rise Set
Actual Time
Civil Twilight
Nautical Twilight
Astronomical Twilight
Moon
Length of Visible Light
Length of Day
Tomorrow will be .
, % of the Moon is Illuminated

Today's Extremes

State Highs State Lows

Community

WunderPhotos

Upload Photos

1,843,877 photos uploaded!

WunderBlogs® & News

Nearby

Air Quality

  Air Quality AQ Index Pollutant
Not available.

Snow Depth

Station Depth Elevation

Earthquake Activity

City Distance Mag. Time & Date
Minimum magnitude displayed is 2.5.

Coastal Water Temperatures

Place Temperature

Stations

Nearby Weather Stations

Station Location Temp. Windchill Dew Point Humidity Wind Precip. Elev Updated Type